Welcome to Des Moines Iowa Weather. I am an independent private personal weather station on the Northwest Side of Des Moines, Iowa. Just East of Windsor Heights and just West of Glendale . This site is also mobile friendly.

There are no active watches, warnings or advisories


Visit our other weather sites:

Historical Data

Weather Station Setup



Weather Underground History page Text

Daily Summary for February 19, 2018 Units:  Both    English   Metric
« Previous Day
Next Day »
Daily Weekly Monthly Yearly Custom
  High: Low: Average:
Temperature: 44.7 °F /  7.1 °C 26.7 °F /  -2.9 °C 35.7 °F /  2.1 °C
Dew Point: 43.0 °F /  6.1 °C 26.0 °F /  -3.3 °C 33.3 °F /  0.7 °C
Humidity: 95 % 70 % 91 %
Wind Speed: 9.0 mph /  14.5 km/h - 1.8 mph /  2.9 km/h
Wind Gust: 12.0 mph /  19.3 km/h - -
Wind:- - NNE
Pressure: 29.85 in /  1010.7 hPa 29.62 in /  1002.9 hPa -
Precipitation: 0.05 in /  1.27 mm    
Historical Graphs
 
 
Tabular Data for February 19, 2018
Time Temperature Dew Point Pressure Wind Wind Speed Wind Gust Humidity Rainfall Rate (Hourly)
00:00 43.3 °F /  6.3 °C 34.0 °F /  1.1 °C 29.70 in /  1005.6 hPa Calm   1.0 mph /  1.6 km/h 70 % 0.00 in /  0 mm
00:15 43.2 °F /  6.2 °C 34.0 °F /  1.1 °C 29.70 in /  1005.6 hPa Calm   1.0 mph /  1.6 km/h 71 % 0.00 in /  0 mm
00:30 43.0 °F /  6.1 °C 34.0 °F /  1.1 °C 29.71 in /  1006 hPa Calm     71 % 0.00 in /  0 mm
00:45 42.7 °F /  5.9 °C 34.0 °F /  1.1 °C 29.71 in /  1006 hPa Calm   4.0 mph /  6.4 km/h 72 % 0.00 in /  0 mm
01:00 42.8 °F /  6 °C 34.0 °F /  1.1 °C 29.70 in /  1005.6 hPa Calm     72 % 0.00 in /  0 mm
01:15 42.9 °F /  6.1 °C 34.0 °F /  1.1 °C 29.69 in /  1005.3 hPa Calm     72 % 0.00 in /  0 mm
01:30 42.6 °F /  5.9 °C 34.0 °F /  1.1 °C 29.68 in /  1005 hPa Calm   2.0 mph /  3.2 km/h 72 % 0.00 in /  0 mm
01:45 42.5 °F /  5.8 °C 34.0 °F /  1.1 °C 29.68 in /  1005 hPa Calm     73 % 0.00 in /  0 mm
02:00 42.6 °F /  5.9 °C 35.0 °F /  1.7 °C 29.68 in /  1005 hPa Calm   1.0 mph /  1.6 km/h 73 % 0.00 in /  0 mm
02:15 43.1 °F /  6.2 °C 35.0 °F /  1.7 °C 29.68 in /  1005 hPa Calm   3.0 mph /  4.8 km/h 73 % 0.00 in /  0 mm
02:30 43.7 °F /  6.5 °C 35.0 °F /  1.7 °C 29.68 in /  1005 hPa Calm   3.0 mph /  4.8 km/h 72 % 0.00 in /  0 mm
02:45 44.1 °F /  6.7 °C 36.0 °F /  2.2 °C 29.67 in /  1004.6 hPa SSE 1.0 mph /  1.6 km/h 4.0 mph /  6.4 km/h 72 % 0.00 in /  0 mm
03:08 44.2 °F /  6.8 °C 36.0 °F /  2.2 °C 29.66 in /  1004.3 hPa Calm   3.0 mph /  4.8 km/h 72 % 0.00 in /  0 mm
03:15 44.3 °F /  6.8 °C 37.0 °F /  2.8 °C 29.67 in /  1004.6 hPa South 1.0 mph /  1.6 km/h 6.0 mph /  9.7 km/h 75 % 0.00 in /  0 mm
03:32 44.0 °F /  6.7 °C 38.0 °F /  3.3 °C 29.66 in /  1004.3 hPa Calm   5.0 mph /  8 km/h 80 % 0.00 in /  0 mm
03:45 43.5 °F /  6.4 °C 38.0 °F /  3.3 °C 29.66 in /  1004.3 hPa SSE 1.0 mph /  1.6 km/h 4.0 mph /  6.4 km/h 82 % 0.00 in /  0 mm
04:01 43.3 °F /  6.3 °C 39.0 °F /  3.9 °C 29.65 in /  1003.9 hPa SW 2.0 mph /  3.2 km/h 4.0 mph /  6.4 km/h 85 % 0.00 in /  0 mm
04:16 43.0 °F /  6.1 °C 39.0 °F /  3.9 °C 29.65 in /  1003.9 hPa Calm   3.0 mph /  4.8 km/h 86 % 0.00 in /  0 mm
04:31 42.7 °F /  5.9 °C 39.0 °F /  3.9 °C 29.65 in /  1003.9 hPa Calm   3.0 mph /  4.8 km/h 87 % 0.00 in /  0 mm
04:46 42.8 °F /  6 °C 40.0 °F /  4.4 °C 29.65 in /  1003.9 hPa Calm   4.0 mph /  6.4 km/h 89 % 0.00 in /  0 mm
05:01 43.0 °F /  6.1 °C 40.0 °F /  4.4 °C 29.65 in /  1003.9 hPa Calm   3.0 mph /  4.8 km/h 90 % 0.00 in /  0 mm
05:16 43.2 °F /  6.2 °C 41.0 °F /  5 °C 29.64 in /  1003.6 hPa East 3.0 mph /  4.8 km/h 4.0 mph /  6.4 km/h 91 % 0.01 in /  0.25 mm
05:31 43.6 °F /  6.4 °C 42.0 °F /  5.6 °C 29.64 in /  1003.6 hPa ESE 1.0 mph /  1.6 km/h 4.0 mph /  6.4 km/h 92 % 0.01 in /  0.25 mm
05:46 43.6 °F /  6.4 °C 42.0 °F /  5.6 °C 29.64 in /  1003.6 hPa ESE 2.0 mph /  3.2 km/h 6.0 mph /  9.7 km/h 93 % 0.01 in /  0.25 mm
06:01 43.7 °F /  6.5 °C 42.0 °F /  5.6 °C 29.63 in /  1003.3 hPa Calm   4.0 mph /  6.4 km/h 93 % 0.01 in /  0.25 mm
06:16 43.8 °F /  6.6 °C 42.0 °F /  5.6 °C 29.63 in /  1003.3 hPa SE 3.0 mph /  4.8 km/h 4.0 mph /  6.4 km/h 94 % 0.00 in /  0 mm
06:31 44.5 °F /  6.9 °C 43.0 °F /  6.1 °C 29.62 in /  1002.9 hPa South 2.0 mph /  3.2 km/h 7.0 mph /  11.3 km/h 94 % 0.00 in /  0 mm
06:46 44.5 °F /  6.9 °C 43.0 °F /  6.1 °C 29.63 in /  1003.3 hPa Calm   3.0 mph /  4.8 km/h 94 % 0.01 in /  0.25 mm
07:01 44.7 °F /  7.1 °C 43.0 °F /  6.1 °C 29.64 in /  1003.6 hPa Calm   2.0 mph /  3.2 km/h 95 % 0.01 in /  0.25 mm
07:16 44.6 °F /  7 °C 43.0 °F /  6.1 °C 29.64 in /  1003.6 hPa Calm   4.0 mph /  6.4 km/h 95 % 0.01 in /  0.25 mm
07:31 44.1 °F /  6.7 °C 43.0 °F /  6.1 °C 29.65 in /  1003.9 hPa Calm   3.0 mph /  4.8 km/h 94 % 0.01 in /  0.25 mm
07:46 42.9 °F /  6.1 °C 41.0 °F /  5 °C 29.65 in /  1003.9 hPa Calm   4.0 mph /  6.4 km/h 94 % 0.00 in /  0 mm
08:01 41.6 °F /  5.3 °C 40.0 °F /  4.4 °C 29.66 in /  1004.3 hPa Calm   5.0 mph /  8 km/h 94 % 0.01 in /  0.25 mm
08:16 39.7 °F /  4.3 °C 38.0 °F /  3.3 °C 29.66 in /  1004.3 hPa Calm   4.0 mph /  6.4 km/h 94 % 0.01 in /  0.25 mm
08:31 38.4 °F /  3.6 °C 37.0 °F /  2.8 °C 29.66 in /  1004.3 hPa Calm   4.0 mph /  6.4 km/h 94 % 0.02 in /  0.51 mm
08:46 37.4 °F /  3 °C 36.0 °F /  2.2 °C 29.67 in /  1004.6 hPa North 2.0 mph /  3.2 km/h 6.0 mph /  9.7 km/h 94 % 0.02 in /  0.51 mm
09:01 36.7 °F /  2.6 °C 35.0 °F /  1.7 °C 29.67 in /  1004.6 hPa North 2.0 mph /  3.2 km/h 6.0 mph /  9.7 km/h 94 % 0.01 in /  0.25 mm
09:16 35.8 °F /  2.1 °C 34.0 °F /  1.1 °C 29.66 in /  1004.3 hPa North 3.0 mph /  4.8 km/h 6.0 mph /  9.7 km/h 94 % 0.01 in /  0.25 mm
09:31 35.3 °F /  1.8 °C 34.0 °F /  1.1 °C 29.67 in /  1004.6 hPa Calm   6.0 mph /  9.7 km/h 94 % 0.01 in /  0.25 mm
09:46 35.0 °F /  1.7 °C 34.0 °F /  1.1 °C 29.67 in /  1004.6 hPa North 2.0 mph /  3.2 km/h 6.0 mph /  9.7 km/h 94 % 0.01 in /  0.25 mm
10:01 34.8 °F /  1.6 °C 34.0 °F /  1.1 °C 29.67 in /  1004.6 hPa Calm   5.0 mph /  8 km/h 95 % 0.01 in /  0.25 mm
10:16 34.8 °F /  1.6 °C 34.0 °F /  1.1 °C 29.67 in /  1004.6 hPa North 2.0 mph /  3.2 km/h 4.0 mph /  6.4 km/h 95 % 0.01 in /  0.25 mm
10:31 34.9 °F /  1.6 °C 34.0 °F /  1.1 °C 29.67 in /  1004.6 hPa North 4.0 mph /  6.4 km/h 6.0 mph /  9.7 km/h 95 % 0.00 in /  0 mm
10:46 35.1 °F /  1.7 °C 34.0 °F /  1.1 °C 29.68 in /  1005 hPa Calm   6.0 mph /  9.7 km/h 95 % 0.00 in /  0 mm
11:01 35.0 °F /  1.7 °C 34.0 °F /  1.1 °C 29.68 in /  1005 hPa North 3.0 mph /  4.8 km/h 10.0 mph /  16.1 km/h 95 % 0.00 in /  0 mm
11:16 35.0 °F /  1.7 °C 34.0 °F /  1.1 °C 29.69 in /  1005.3 hPa North 2.0 mph /  3.2 km/h 5.0 mph /  8 km/h 95 % 0.00 in /  0 mm
11:31 34.9 °F /  1.6 °C 34.0 °F /  1.1 °C 29.69 in /  1005.3 hPa North 3.0 mph /  4.8 km/h 8.0 mph /  12.9 km/h 95 % 0.00 in /  0 mm
11:47 34.9 °F /  1.6 °C 34.0 °F /  1.1 °C 29.69 in /  1005.3 hPa North 8.0 mph /  12.9 km/h 9.0 mph /  14.5 km/h 95 % 0.00 in /  0 mm
12:02 34.8 °F /  1.6 °C 34.0 °F /  1.1 °C 29.69 in /  1005.3 hPa North 2.0 mph /  3.2 km/h 9.0 mph /  14.5 km/h 95 % 0.00 in /  0 mm
12:17 34.7 °F /  1.5 °C 34.0 °F /  1.1 °C 29.69 in /  1005.3 hPa North 4.0 mph /  6.4 km/h 12.0 mph /  19.3 km/h 95 % 0.00 in /  0 mm
12:32 34.6 °F /  1.4 °C 33.0 °F /  0.6 °C 29.69 in /  1005.3 hPa North 4.0 mph /  6.4 km/h 9.0 mph /  14.5 km/h 95 % 0.00 in /  0 mm
12:47 34.7 °F /  1.5 °C 34.0 °F /  1.1 °C 29.69 in /  1005.3 hPa North 5.0 mph /  8 km/h 10.0 mph /  16.1 km/h 95 % 0.00 in /  0 mm
13:02 34.8 °F /  1.6 °C 34.0 °F /  1.1 °C 29.69 in /  1005.3 hPa North 6.0 mph /  9.7 km/h 6.0 mph /  9.7 km/h 95 % 0.00 in /  0 mm
13:17 34.7 °F /  1.5 °C 34.0 °F /  1.1 °C 29.69 in /  1005.3 hPa North 2.0 mph /  3.2 km/h 9.0 mph /  14.5 km/h 95 % 0.00 in /  0 mm
13:32 34.8 °F /  1.6 °C 34.0 °F /  1.1 °C 29.69 in /  1005.3 hPa North 4.0 mph /  6.4 km/h 6.0 mph /  9.7 km/h 95 % 0.00 in /  0 mm
13:47 34.7 °F /  1.5 °C 34.0 °F /  1.1 °C 29.70 in /  1005.6 hPa North 5.0 mph /  8 km/h 10.0 mph /  16.1 km/h 95 % 0.00 in /  0 mm
14:02 34.2 °F /  1.2 °C 33.0 °F /  0.6 °C 29.71 in /  1006 hPa North 3.0 mph /  4.8 km/h 10.0 mph /  16.1 km/h 95 % 0.00 in /  0 mm
14:17 33.9 °F /  1.1 °C 33.0 °F /  0.6 °C 29.72 in /  1006.3 hPa North 2.0 mph /  3.2 km/h 6.0 mph /  9.7 km/h 95 % 0.00 in /  0 mm
14:34 33.6 °F /  0.9 °C 32.0 °F /  0 °C 29.72 in /  1006.3 hPa North 5.0 mph /  8 km/h 10.0 mph /  16.1 km/h 95 % 0.00 in /  0 mm
14:47 33.2 °F /  0.7 °C 32.0 °F /  0 °C 29.71 in /  1006 hPa North 4.0 mph /  6.4 km/h 9.0 mph /  14.5 km/h 95 % 0.00 in /  0 mm
15:03 33.1 °F /  0.6 °C 32.0 °F /  0 °C 29.72 in /  1006.3 hPa North 3.0 mph /  4.8 km/h 9.0 mph /  14.5 km/h 95 % 0.00 in /  0 mm
15:19 32.9 °F /  0.5 °C 32.0 °F /  0 °C 29.73 in /  1006.7 hPa North 5.0 mph /  8 km/h 11.0 mph /  17.7 km/h 95 % 0.00 in /  0 mm
15:32 32.8 °F /  0.4 °C 32.0 °F /  0 °C 29.73 in /  1006.7 hPa North 2.0 mph /  3.2 km/h 8.0 mph /  12.9 km/h 95 % 0.00 in /  0 mm
15:47 32.7 °F /  0.4 °C 32.0 °F /  0 °C 29.74 in /  1007 hPa North 3.0 mph /  4.8 km/h 4.0 mph /  6.4 km/h 95 % 0.00 in /  0 mm
16:02 32.6 °F /  0.3 °C 31.0 °F /  -0.6 °C 29.75 in /  1007.3 hPa North 4.0 mph /  6.4 km/h 4.0 mph /  6.4 km/h 95 % 0.00 in /  0 mm
16:17 32.2 °F /  0.1 °C 31.0 °F /  -0.6 °C 29.75 in /  1007.3 hPa North 2.0 mph /  3.2 km/h 9.0 mph /  14.5 km/h 95 % 0.00 in /  0 mm
16:32 31.8 °F /  -0.1 °C 31.0 °F /  -0.6 °C 29.76 in /  1007.7 hPa North 4.0 mph /  6.4 km/h 10.0 mph /  16.1 km/h 95 % 0.00 in /  0 mm
16:47 31.4 °F /  -0.3 °C 30.0 °F /  -1.1 °C 29.76 in /  1007.7 hPa North 3.0 mph /  4.8 km/h 8.0 mph /  12.9 km/h 95 % 0.00 in /  0 mm
17:02 31.0 °F /  -0.6 °C 30.0 °F /  -1.1 °C 29.77 in /  1008 hPa North 2.0 mph /  3.2 km/h 6.0 mph /  9.7 km/h 95 % 0.00 in /  0 mm
17:17 30.7 °F /  -0.7 °C 30.0 °F /  -1.1 °C 29.78 in /  1008.4 hPa North 3.0 mph /  4.8 km/h 9.0 mph /  14.5 km/h 95 % 0.00 in /  0 mm
17:32 30.4 °F /  -0.9 °C 29.0 °F /  -1.7 °C 29.79 in /  1008.7 hPa North 2.0 mph /  3.2 km/h 9.0 mph /  14.5 km/h 95 % 0.00 in /  0 mm
17:47 30.0 °F /  -1.1 °C 29.0 °F /  -1.7 °C 29.79 in /  1008.7 hPa North 4.0 mph /  6.4 km/h 8.0 mph /  12.9 km/h 95 % 0.00 in /  0 mm
18:02 29.6 °F /  -1.3 °C 28.0 °F /  -2.2 °C 29.78 in /  1008.4 hPa North 3.0 mph /  4.8 km/h 8.0 mph /  12.9 km/h 95 % 0.00 in /  0 mm
18:17 29.4 °F /  -1.4 °C 28.0 °F /  -2.2 °C 29.79 in /  1008.7 hPa North 1.0 mph /  1.6 km/h 5.0 mph /  8 km/h 95 % 0.00 in /  0 mm
18:32 29.0 °F /  -1.7 °C 28.0 °F /  -2.2 °C 29.79 in /  1008.7 hPa North 9.0 mph /  14.5 km/h 10.0 mph /  16.1 km/h 95 % 0.00 in /  0 mm
18:47 28.8 °F /  -1.8 °C 28.0 °F /  -2.2 °C 29.81 in /  1009.4 hPa North 2.0 mph /  3.2 km/h 5.0 mph /  8 km/h 95 % 0.00 in /  0 mm
19:03 28.6 °F /  -1.9 °C 27.0 °F /  -2.8 °C 29.83 in /  1010 hPa North 1.0 mph /  1.6 km/h 6.0 mph /  9.7 km/h 95 % 0.00 in /  0 mm
19:18 28.5 °F /  -1.9 °C 27.0 °F /  -2.8 °C 29.82 in /  1009.7 hPa North 1.0 mph /  1.6 km/h 5.0 mph /  8 km/h 95 % 0.00 in /  0 mm
19:33 28.3 °F /  -2.1 °C 27.0 °F /  -2.8 °C 29.83 in /  1010 hPa North 1.0 mph /  1.6 km/h 8.0 mph /  12.9 km/h 95 % 0.00 in /  0 mm
19:48 28.2 °F /  -2.1 °C 27.0 °F /  -2.8 °C 29.83 in /  1010 hPa North 2.0 mph /  3.2 km/h 8.0 mph /  12.9 km/h 95 % 0.00 in /  0 mm
20:03 27.9 °F /  -2.3 °C 27.0 °F /  -2.8 °C 29.84 in /  1010.4 hPa North 2.0 mph /  3.2 km/h 6.0 mph /  9.7 km/h 95 % 0.00 in /  0 mm
20:18 27.7 °F /  -2.4 °C 27.0 °F /  -2.8 °C 29.84 in /  1010.4 hPa North 1.0 mph /  1.6 km/h 5.0 mph /  8 km/h 95 % 0.00 in /  0 mm
20:33 27.5 °F /  -2.5 °C 26.0 °F /  -3.3 °C 29.84 in /  1010.4 hPa North 1.0 mph /  1.6 km/h 5.0 mph /  8 km/h 95 % 0.00 in /  0 mm
20:48 27.5 °F /  -2.5 °C 26.0 °F /  -3.3 °C 29.83 in /  1010 hPa North 2.0 mph /  3.2 km/h 4.0 mph /  6.4 km/h 95 % 0.00 in /  0 mm
21:03 27.4 °F /  -2.6 °C 26.0 °F /  -3.3 °C 29.84 in /  1010.4 hPa North 1.0 mph /  1.6 km/h 5.0 mph /  8 km/h 95 % 0.00 in /  0 mm
21:18 27.4 °F /  -2.6 °C 26.0 °F /  -3.3 °C 29.84 in /  1010.4 hPa North 2.0 mph /  3.2 km/h 4.0 mph /  6.4 km/h 95 % 0.00 in /  0 mm
21:33 27.4 °F /  -2.6 °C 26.0 °F /  -3.3 °C 29.84 in /  1010.4 hPa North 1.0 mph /  1.6 km/h 5.0 mph /  8 km/h 95 % 0.00 in /  0 mm
21:48 27.4 °F /  -2.6 °C 26.0 °F /  -3.3 °C 29.85 in /  1010.7 hPa North 3.0 mph /  4.8 km/h 6.0 mph /  9.7 km/h 95 % 0.00 in /  0 mm
22:03 27.2 °F /  -2.7 °C 26.0 °F /  -3.3 °C 29.84 in /  1010.4 hPa North 1.0 mph /  1.6 km/h 4.0 mph /  6.4 km/h 95 % 0.00 in /  0 mm
22:18 27.1 °F /  -2.7 °C 26.0 °F /  -3.3 °C 29.85 in /  1010.7 hPa Calm   3.0 mph /  4.8 km/h 95 % 0.00 in /  0 mm
22:33 26.9 °F /  -2.8 °C 26.0 °F /  -3.3 °C 29.85 in /  1010.7 hPa North 1.0 mph /  1.6 km/h 3.0 mph /  4.8 km/h 95 % 0.00 in /  0 mm
22:48 26.8 °F /  -2.9 °C 26.0 °F /  -3.3 °C 29.82 in /  1009.7 hPa North 4.0 mph /  6.4 km/h 4.0 mph /  6.4 km/h 95 % 0.00 in /  0 mm
23:03 26.7 °F /  -2.9 °C 26.0 °F /  -3.3 °C 29.82 in /  1009.7 hPa North 3.0 mph /  4.8 km/h 3.0 mph /  4.8 km/h 95 % 0.00 in /  0 mm
23:18 26.7 °F /  -2.9 °C 26.0 °F /  -3.3 °C 29.85 in /  1010.7 hPa Calm   1.0 mph /  1.6 km/h 95 % 0.00 in /  0 mm
23:33 26.8 °F /  -2.9 °C 26.0 °F /  -3.3 °C 29.82 in /  1009.7 hPa Calm   1.0 mph /  1.6 km/h 95 % 0.00 in /  0 mm
23:48 26.7 °F /  -2.9 °C 26.0 °F /  -3.3 °C 29.82 in /  1009.7 hPa Calm   3.0 mph /  4.8 km/h 95 % 0.00 in /  0 mm
Des Moines Weather and Climate
Compliments of Weather Underground - 3 mb

Script developed by  Jim McMurry - jmcmurry@mwt.net Adapted for the template by  Wim van der Kuil - Leuven-Template.eu

You find our weather info also at:

Weather Underground

Equipment we use:

Weather-station
Davis VP2 Plus

Weather-program
Davis Weatherlink.Com

Weather-server
iMac (Retina 4K, 21.5-inch, Late 2015)

Provider
Hostmonster.com

Davis VP2 Plus

Davis Weatherlink.Com

iMac (Retina 4K, 21.5-inch, Late 2015)

Hostmonster.com